sensor_id;sensor_type;location;lat;lon;timestamp;temperature;humidity
16825;DHT22;8529;48.108;-1.706;2023-06-26T00:00:33;21.40;97.60
16825;DHT22;8529;48.108;-1.706;2023-06-26T00:03:02;21.40;97.60
16825;DHT22;8529;48.108;-1.706;2023-06-26T00:05:29;21.40;97.50
16825;DHT22;8529;48.108;-1.706;2023-06-26T00:07:56;21.30;97.60
16825;DHT22;8529;48.108;-1.706;2023-06-26T00:10:26;21.30;97.50
16825;DHT22;8529;48.108;-1.706;2023-06-26T00:12:54;21.30;97.70
16825;DHT22;8529;48.108;-1.706;2023-06-26T00:15:21;21.30;97.70
16825;DHT22;8529;48.108;-1.706;2023-06-26T00:17:48;21.30;97.60
16825;DHT22;8529;48.108;-1.706;2023-06-26T00:20:16;21.20;97.60
16825;DHT22;8529;48.108;-1.706;2023-06-26T00:22:44;21.20;97.70
16825;DHT22;8529;48.108;-1.706;2023-06-26T00:25:11;21.10;97.80
16825;DHT22;8529;48.108;-1.706;2023-06-26T00:27:38;21.10;97.90
16825;DHT22;8529;48.108;-1.706;2023-06-26T00:30:09;21.10;97.90
16825;DHT22;8529;48.108;-1.706;2023-06-26T00:32:36;21.10;97.90
16825;DHT22;8529;48.108;-1.706;2023-06-26T00:35:03;21.00;97.90
16825;DHT22;8529;48.108;-1.706;2023-06-26T00:37:31;21.00;97.90
16825;DHT22;8529;48.108;-1.706;2023-06-26T00:39:58;20.90;97.90
16825;DHT22;8529;48.108;-1.706;2023-06-26T00:42:24;20.90;97.80
16825;DHT22;8529;48.108;-1.706;2023-06-26T00:44:51;20.90;97.90
16825;DHT22;8529;48.108;-1.706;2023-06-26T00:47:20;20.90;97.90
16825;DHT22;8529;48.108;-1.706;2023-06-26T00:49:47;20.90;97.90
16825;DHT22;8529;48.108;-1.706;2023-06-26T00:52:14;20.80;97.90
16825;DHT22;8529;48.108;-1.706;2023-06-26T00:54:42;20.80;98.00
16825;DHT22;8529;48.108;-1.706;2023-06-26T00:57:09;20.70;98.10
16825;DHT22;8529;48.108;-1.706;2023-06-26T00:59:36;20.70;98.10
16825;DHT22;8529;48.108;-1.706;2023-06-26T01:02:03;20.60;98.10
16825;DHT22;8529;48.108;-1.706;2023-06-26T01:04:32;20.70;98.20
16825;DHT22;8529;48.108;-1.706;2023-06-26T01:07:03;20.70;98.20
16825;DHT22;8529;48.108;-1.706;2023-06-26T01:09:34;20.70;98.20
16825;DHT22;8529;48.108;-1.706;2023-06-26T01:12:01;20.70;98.20
16825;DHT22;8529;48.108;-1.706;2023-06-26T01:14:28;20.60;98.20
16825;DHT22;8529;48.108;-1.706;2023-06-26T01:16:55;20.60;98.30
16825;DHT22;8529;48.108;-1.706;2023-06-26T01:19:24;20.60;98.20
16825;DHT22;8529;48.108;-1.706;2023-06-26T01:21:56;20.60;98.30
16825;DHT22;8529;48.108;-1.706;2023-06-26T01:24:25;20.50;98.40
16825;DHT22;8529;48.108;-1.706;2023-06-26T01:27:00;20.50;98.30
16825;DHT22;8529;48.108;-1.706;2023-06-26T01:29:29;20.50;98.30
16825;DHT22;8529;48.108;-1.706;2023-06-26T01:31:58;20.50;98.40
16825;DHT22;8529;48.108;-1.706;2023-06-26T01:34:25;20.40;98.50
16825;DHT22;8529;48.108;-1.706;2023-06-26T01:36:52;20.30;98.60
16825;DHT22;8529;48.108;-1.706;2023-06-26T01:39:19;20.30;98.80
16825;DHT22;8529;48.108;-1.706;2023-06-26T01:41:46;20.30;98.80
16825;DHT22;8529;48.108;-1.706;2023-06-26T01:44:24;20.20;98.80
16825;DHT22;8529;48.108;-1.706;2023-06-26T01:46:59;20.20;98.90
16825;DHT22;8529;48.108;-1.706;2023-06-26T01:49:32;20.20;98.90
16825;DHT22;8529;48.108;-1.706;2023-06-26T01:52:06;20.20;98.90
16825;DHT22;8529;48.108;-1.706;2023-06-26T01:54:37;20.20;98.90
16825;DHT22;8529;48.108;-1.706;2023-06-26T01:57:08;20.20;98.80
16825;DHT22;8529;48.108;-1.706;2023-06-26T01:59:37;20.20;98.80
16825;DHT22;8529;48.108;-1.706;2023-06-26T02:02:07;20.20;98.80
16825;DHT22;8529;48.108;-1.706;2023-06-26T02:04:35;20.20;98.90
16825;DHT22;8529;48.108;-1.706;2023-06-26T02:07:03;20.20;98.80
16825;DHT22;8529;48.108;-1.706;2023-06-26T02:09:30;20.10;98.70
16825;DHT22;8529;48.108;-1.706;2023-06-26T02:11:57;20.00;98.80
16825;DHT22;8529;48.108;-1.706;2023-06-26T02:14:24;19.90;99.00
16825;DHT22;8529;48.108;-1.706;2023-06-26T02:16:52;19.90;99.10
16825;DHT22;8529;48.108;-1.706;2023-06-26T02:19:19;19.90;99.00
16825;DHT22;8529;48.108;-1.706;2023-06-26T02:21:47;19.80;99.10
16825;DHT22;8529;48.108;-1.706;2023-06-26T02:24:15;19.80;99.20
16825;DHT22;8529;48.108;-1.706;2023-06-26T02:26:41;19.70;99.30
16825;DHT22;8529;48.108;-1.706;2023-06-26T02:29:08;19.70;99.30
16825;DHT22;8529;48.108;-1.706;2023-06-26T02:31:35;19.70;99.30
16825;DHT22;8529;48.108;-1.706;2023-06-26T02:34:04;19.70;99.50
16825;DHT22;8529;48.108;-1.706;2023-06-26T02:36:31;19.80;99.20
16825;DHT22;8529;48.108;-1.706;2023-06-26T02:38:57;19.80;99.40
16825;DHT22;8529;48.108;-1.706;2023-06-26T02:41:24;19.80;99.00
16825;DHT22;8529;48.108;-1.706;2023-06-26T02:43:51;19.70;99.20
16825;DHT22;8529;48.108;-1.706;2023-06-26T02:46:18;19.70;99.30
16825;DHT22;8529;48.108;-1.706;2023-06-26T02:48:45;19.70;99.30
16825;DHT22;8529;48.108;-1.706;2023-06-26T02:51:13;19.60;99.40
16825;DHT22;8529;48.108;-1.706;2023-06-26T02:53:40;19.70;99.40
16825;DHT22;8529;48.108;-1.706;2023-06-26T02:56:07;19.70;99.40
16825;DHT22;8529;48.108;-1.706;2023-06-26T02:58:34;19.70;99.30
16825;DHT22;8529;48.108;-1.706;2023-06-26T03:01:01;19.70;99.20
16825;DHT22;8529;48.108;-1.706;2023-06-26T03:03:27;19.70;99.20
16825;DHT22;8529;48.108;-1.706;2023-06-26T03:05:54;19.60;99.30
16825;DHT22;8529;48.108;-1.706;2023-06-26T03:08:23;19.60;99.30
16825;DHT22;8529;48.108;-1.706;2023-06-26T03:10:50;19.60;99.30
16825;DHT22;8529;48.108;-1.706;2023-06-26T03:13:17;19.50;99.30
16825;DHT22;8529;48.108;-1.706;2023-06-26T03:15:44;19.40;99.50
16825;DHT22;8529;48.108;-1.706;2023-06-26T03:18:11;19.40;99.50
16825;DHT22;8529;48.108;-1.706;2023-06-26T03:20:38;19.40;99.40
16825;DHT22;8529;48.108;-1.706;2023-06-26T03:23:05;19.40;99.40
16825;DHT22;8529;48.108;-1.706;2023-06-26T03:25:33;19.40;99.40
16825;DHT22;8529;48.108;-1.706;2023-06-26T03:28:00;19.30;99.40
16825;DHT22;8529;48.108;-1.706;2023-06-26T03:30:27;19.30;99.50
16825;DHT22;8529;48.108;-1.706;2023-06-26T03:32:54;19.20;99.60
16825;DHT22;8529;48.108;-1.706;2023-06-26T03:35:21;19.10;99.60
16825;DHT22;8529;48.108;-1.706;2023-06-26T03:37:49;19.10;99.70
16825;DHT22;8529;48.108;-1.706;2023-06-26T03:40:16;19.10;99.70
16825;DHT22;8529;48.108;-1.706;2023-06-26T03:42:44;19.10;99.80
16825;DHT22;8529;48.108;-1.706;2023-06-26T03:45:11;19.10;99.80
16825;DHT22;8529;48.108;-1.706;2023-06-26T03:47:38;19.00;99.70
16825;DHT22;8529;48.108;-1.706;2023-06-26T03:50:06;19.00;99.60
16825;DHT22;8529;48.108;-1.706;2023-06-26T03:52:33;19.00;99.70
16825;DHT22;8529;48.108;-1.706;2023-06-26T03:55:00;19.00;99.70
16825;DHT22;8529;48.108;-1.706;2023-06-26T03:57:28;19.00;99.80
16825;DHT22;8529;48.108;-1.706;2023-06-26T03:59:56;19.00;99.60
16825;DHT22;8529;48.108;-1.706;2023-06-26T04:02:23;19.10;99.60
16825;DHT22;8529;48.108;-1.706;2023-06-26T04:04:50;19.10;99.50
16825;DHT22;8529;48.108;-1.706;2023-06-26T04:07:17;19.00;99.50
16825;DHT22;8529;48.108;-1.706;2023-06-26T04:09:44;19.00;99.60
16825;DHT22;8529;48.108;-1.706;2023-06-26T04:12:11;19.00;99.60
16825;DHT22;8529;48.108;-1.706;2023-06-26T04:14:38;19.00;99.60
16825;DHT22;8529;48.108;-1.706;2023-06-26T04:17:06;19.00;99.70
16825;DHT22;8529;48.108;-1.706;2023-06-26T04:19:33;18.90;99.60
16825;DHT22;8529;48.108;-1.706;2023-06-26T04:22:01;18.90;99.70
16825;DHT22;8529;48.108;-1.706;2023-06-26T04:24:28;18.90;99.80
16825;DHT22;8529;48.108;-1.706;2023-06-26T04:26:56;18.90;99.70
16825;DHT22;8529;48.108;-1.706;2023-06-26T04:29:23;18.90;99.70
16825;DHT22;8529;48.108;-1.706;2023-06-26T04:31:51;18.80;99.80
16825;DHT22;8529;48.108;-1.706;2023-06-26T04:34:19;18.90;99.80
16825;DHT22;8529;48.108;-1.706;2023-06-26T04:36:46;18.90;99.70
16825;DHT22;8529;48.108;-1.706;2023-06-26T04:39:13;18.90;99.70
16825;DHT22;8529;48.108;-1.706;2023-06-26T04:41:41;18.90;99.90
16825;DHT22;8529;48.108;-1.706;2023-06-26T04:44:08;18.90;99.80
16825;DHT22;8529;48.108;-1.706;2023-06-26T04:46:36;18.90;99.90
16825;DHT22;8529;48.108;-1.706;2023-06-26T04:49:06;18.90;99.80
16825;DHT22;8529;48.108;-1.706;2023-06-26T04:51:34;18.90;99.90
16825;DHT22;8529;48.108;-1.706;2023-06-26T04:54:06;19.00;99.90
16825;DHT22;8529;48.108;-1.706;2023-06-26T04:56:32;19.00;99.90
16825;DHT22;8529;48.108;-1.706;2023-06-26T04:58:59;19.00;99.80
16825;DHT22;8529;48.108;-1.706;2023-06-26T05:01:26;19.10;99.80
16825;DHT22;8529;48.108;-1.706;2023-06-26T05:03:55;19.10;99.90
16825;DHT22;8529;48.108;-1.706;2023-06-26T05:06:22;19.10;99.90
16825;DHT22;8529;48.108;-1.706;2023-06-26T05:08:50;19.10;99.80
16825;DHT22;8529;48.108;-1.706;2023-06-26T05:11:17;19.10;99.90
16825;DHT22;8529;48.108;-1.706;2023-06-26T05:13:44;19.10;99.80
16825;DHT22;8529;48.108;-1.706;2023-06-26T05:16:11;19.10;99.80
16825;DHT22;8529;48.108;-1.706;2023-06-26T05:18:38;19.00;99.80
16825;DHT22;8529;48.108;-1.706;2023-06-26T05:21:06;19.00;99.90
16825;DHT22;8529;48.108;-1.706;2023-06-26T05:23:34;19.00;99.90
16825;DHT22;8529;48.108;-1.706;2023-06-26T05:26:03;19.00;99.90
16825;DHT22;8529;48.108;-1.706;2023-06-26T05:28:31;19.00;99.90
16825;DHT22;8529;48.108;-1.706;2023-06-26T05:30:58;19.10;99.90
16825;DHT22;8529;48.108;-1.706;2023-06-26T05:33:26;19.30;99.90
16825;DHT22;8529;48.108;-1.706;2023-06-26T05:35:54;19.20;99.90
16825;DHT22;8529;48.108;-1.706;2023-06-26T05:38:22;19.10;99.90
16825;DHT22;8529;48.108;-1.706;2023-06-26T05:40:50;19.00;99.90
16825;DHT22;8529;48.108;-1.706;2023-06-26T05:43:19;19.10;99.90
16825;DHT22;8529;48.108;-1.706;2023-06-26T05:45:47;19.10;99.90
16825;DHT22;8529;48.108;-1.706;2023-06-26T05:48:14;19.10;99.90
16825;DHT22;8529;48.108;-1.706;2023-06-26T05:50:42;19.00;99.90
16825;DHT22;8529;48.108;-1.706;2023-06-26T05:53:11;19.10;99.90
16825;DHT22;8529;48.108;-1.706;2023-06-26T05:55:38;19.10;99.90
16825;DHT22;8529;48.108;-1.706;2023-06-26T05:58:10;19.20;99.90
16825;DHT22;8529;48.108;-1.706;2023-06-26T06:00:39;19.20;99.90
16825;DHT22;8529;48.108;-1.706;2023-06-26T06:03:06;19.30;99.90
16825;DHT22;8529;48.108;-1.706;2023-06-26T06:05:33;19.20;99.90
16825;DHT22;8529;48.108;-1.706;2023-06-26T06:08:00;19.20;99.90
16825;DHT22;8529;48.108;-1.706;2023-06-26T06:10:27;19.20;99.90
16825;DHT22;8529;48.108;-1.706;2023-06-26T06:12:53;19.30;99.90
16825;DHT22;8529;48.108;-1.706;2023-06-26T06:15:20;19.40;99.90
16825;DHT22;8529;48.108;-1.706;2023-06-26T06:17:49;19.60;99.90
16825;DHT22;8529;48.108;-1.706;2023-06-26T06:20:17;19.70;99.90
16825;DHT22;8529;48.108;-1.706;2023-06-26T06:22:45;19.70;99.90
16825;DHT22;8529;48.108;-1.706;2023-06-26T06:25:14;19.70;99.90
16825;DHT22;8529;48.108;-1.706;2023-06-26T06:27:41;19.60;99.90
16825;DHT22;8529;48.108;-1.706;2023-06-26T06:30:09;19.70;99.90
16825;DHT22;8529;48.108;-1.706;2023-06-26T06:32:36;19.60;99.90
16825;DHT22;8529;48.108;-1.706;2023-06-26T06:35:05;19.60;99.90
16825;DHT22;8529;48.108;-1.706;2023-06-26T06:37:35;19.70;99.90
16825;DHT22;8529;48.108;-1.706;2023-06-26T06:40:02;19.70;99.90
16825;DHT22;8529;48.108;-1.706;2023-06-26T06:42:31;19.80;99.90
16825;DHT22;8529;48.108;-1.706;2023-06-26T06:44:58;19.90;99.90
16825;DHT22;8529;48.108;-1.706;2023-06-26T06:47:25;20.00;99.90
16825;DHT22;8529;48.108;-1.706;2023-06-26T06:49:52;20.10;99.90
16825;DHT22;8529;48.108;-1.706;2023-06-26T06:52:20;20.10;99.90
16825;DHT22;8529;48.108;-1.706;2023-06-26T06:54:54;20.10;99.90
16825;DHT22;8529;48.108;-1.706;2023-06-26T06:57:21;20.20;99.90
16825;DHT22;8529;48.108;-1.706;2023-06-26T06:59:48;20.30;99.90
16825;DHT22;8529;48.108;-1.706;2023-06-26T07:02:16;20.40;99.90
16825;DHT22;8529;48.108;-1.706;2023-06-26T07:04:43;20.40;99.70
16825;DHT22;8529;48.108;-1.706;2023-06-26T07:07:11;20.50;99.30
16825;DHT22;8529;48.108;-1.706;2023-06-26T07:09:40;20.40;98.60
16825;DHT22;8529;48.108;-1.706;2023-06-26T07:12:07;20.40;98.50
16825;DHT22;8529;48.108;-1.706;2023-06-26T07:14:34;20.40;98.70
16825;DHT22;8529;48.108;-1.706;2023-06-26T07:17:01;20.60;99.10
16825;DHT22;8529;48.108;-1.706;2023-06-26T07:19:28;20.70;98.90
16825;DHT22;8529;48.108;-1.706;2023-06-26T07:21:55;20.70;98.80
16825;DHT22;8529;48.108;-1.706;2023-06-26T07:24:22;20.70;98.70
16825;DHT22;8529;48.108;-1.706;2023-06-26T07:26:50;20.70;98.70
16825;DHT22;8529;48.108;-1.706;2023-06-26T07:29:17;20.70;98.40
16825;DHT22;8529;48.108;-1.706;2023-06-26T07:31:44;20.70;98.40
16825;DHT22;8529;48.108;-1.706;2023-06-26T07:34:11;20.70;98.30
16825;DHT22;8529;48.108;-1.706;2023-06-26T07:36:38;20.70;98.00
16825;DHT22;8529;48.108;-1.706;2023-06-26T07:39:05;20.70;97.90
16825;DHT22;8529;48.108;-1.706;2023-06-26T07:41:31;20.80;98.10
16825;DHT22;8529;48.108;-1.706;2023-06-26T07:44:00;20.80;97.90
16825;DHT22;8529;48.108;-1.706;2023-06-26T07:46:27;20.80;97.90
16825;DHT22;8529;48.108;-1.706;2023-06-26T07:48:53;20.90;97.80
16825;DHT22;8529;48.108;-1.706;2023-06-26T07:51:20;20.80;97.40
16825;DHT22;8529;48.108;-1.706;2023-06-26T07:53:47;20.90;97.10
16825;DHT22;8529;48.108;-1.706;2023-06-26T07:56:14;20.90;96.90
16825;DHT22;8529;48.108;-1.706;2023-06-26T07:58:41;20.90;96.80
16825;DHT22;8529;48.108;-1.706;2023-06-26T08:01:09;20.90;96.90
16825;DHT22;8529;48.108;-1.706;2023-06-26T08:03:36;20.90;96.50
16825;DHT22;8529;48.108;-1.706;2023-06-26T08:06:03;20.90;96.10
16825;DHT22;8529;48.108;-1.706;2023-06-26T08:08:30;20.90;95.90
16825;DHT22;8529;48.108;-1.706;2023-06-26T08:10:57;20.90;96.10
16825;DHT22;8529;48.108;-1.706;2023-06-26T08:13:25;21.00;96.10
16825;DHT22;8529;48.108;-1.706;2023-06-26T08:15:51;21.00;96.10
16825;DHT22;8529;48.108;-1.706;2023-06-26T08:18:20;21.00;95.90
16825;DHT22;8529;48.108;-1.706;2023-06-26T08:20:47;21.10;95.70
16825;DHT22;8529;48.108;-1.706;2023-06-26T08:23:14;21.10;95.90
16825;DHT22;8529;48.108;-1.706;2023-06-26T08:25:40;21.10;95.60
16825;DHT22;8529;48.108;-1.706;2023-06-26T08:28:07;21.20;96.10
16825;DHT22;8529;48.108;-1.706;2023-06-26T08:30:34;21.20;95.80
16825;DHT22;8529;48.108;-1.706;2023-06-26T08:33:01;21.30;95.60
16825;DHT22;8529;48.108;-1.706;2023-06-26T08:35:29;21.30;95.80
16825;DHT22;8529;48.108;-1.706;2023-06-26T08:37:56;21.40;95.80
16825;DHT22;8529;48.108;-1.706;2023-06-26T08:40:23;21.40;95.50
16825;DHT22;8529;48.108;-1.706;2023-06-26T08:42:50;21.50;95.50
16825;DHT22;8529;48.108;-1.706;2023-06-26T08:45:19;21.50;95.70
16825;DHT22;8529;48.108;-1.706;2023-06-26T08:47:48;21.50;95.50
16825;DHT22;8529;48.108;-1.706;2023-06-26T08:50:20;21.60;94.40
16825;DHT22;8529;48.108;-1.706;2023-06-26T08:52:54;21.60;93.80
16825;DHT22;8529;48.108;-1.706;2023-06-26T08:55:23;21.60;93.80
16825;DHT22;8529;48.108;-1.706;2023-06-26T08:57:52;21.60;94.10
16825;DHT22;8529;48.108;-1.706;2023-06-26T09:00:20;21.70;94.40
16825;DHT22;8529;48.108;-1.706;2023-06-26T09:02:47;21.70;93.70
16825;DHT22;8529;48.108;-1.706;2023-06-26T09:05:14;21.70;93.50
16825;DHT22;8529;48.108;-1.706;2023-06-26T09:07:40;21.70;93.20
16825;DHT22;8529;48.108;-1.706;2023-06-26T09:10:09;21.80;93.70
16825;DHT22;8529;48.108;-1.706;2023-06-26T09:12:37;21.80;93.70
16825;DHT22;8529;48.108;-1.706;2023-06-26T09:15:05;21.70;93.60
16825;DHT22;8529;48.108;-1.706;2023-06-26T09:17:38;21.70;93.10
16825;DHT22;8529;48.108;-1.706;2023-06-26T09:20:05;21.60;92.60
16825;DHT22;8529;48.108;-1.706;2023-06-26T09:22:34;21.60;92.80
16825;DHT22;8529;48.108;-1.706;2023-06-26T09:25:05;21.80;93.00
16825;DHT22;8529;48.108;-1.706;2023-06-26T09:27:34;21.90;92.60
16825;DHT22;8529;48.108;-1.706;2023-06-26T09:30:02;22.20;92.70
16825;DHT22;8529;48.108;-1.706;2023-06-26T09:32:29;22.50;92.60
16825;DHT22;8529;48.108;-1.706;2023-06-26T09:34:56;22.70;92.40
16825;DHT22;8529;48.108;-1.706;2023-06-26T09:37:26;22.80;92.20
16825;DHT22;8529;48.108;-1.706;2023-06-26T09:39:53;22.90;91.30
16825;DHT22;8529;48.108;-1.706;2023-06-26T09:42:21;22.90;90.70
16825;DHT22;8529;48.108;-1.706;2023-06-26T09:44:51;23.00;90.70
16825;DHT22;8529;48.108;-1.706;2023-06-26T09:47:19;23.10;90.80
16825;DHT22;8529;48.108;-1.706;2023-06-26T09:49:46;23.20;90.90
16825;DHT22;8529;48.108;-1.706;2023-06-26T09:52:14;23.40;90.10
16825;DHT22;8529;48.108;-1.706;2023-06-26T09:54:42;23.50;91.60
16825;DHT22;8529;48.108;-1.706;2023-06-26T09:57:11;23.50;92.20
16825;DHT22;8529;48.108;-1.706;2023-06-26T09:59:39;23.30;93.60
16825;DHT22;8529;48.108;-1.706;2023-06-26T10:02:08;23.10;93.50
16825;DHT22;8529;48.108;-1.706;2023-06-26T10:04:36;22.90;94.30
16825;DHT22;8529;48.108;-1.706;2023-06-26T10:07:06;22.90;92.60
16825;DHT22;8529;48.108;-1.706;2023-06-26T10:09:33;22.90;93.60
16825;DHT22;8529;48.108;-1.706;2023-06-26T10:12:03;23.00;92.80
16825;DHT22;8529;48.108;-1.706;2023-06-26T10:14:34;23.10;91.70
16825;DHT22;8529;48.108;-1.706;2023-06-26T10:17:03;23.00;91.20
16825;DHT22;8529;48.108;-1.706;2023-06-26T10:19:32;22.90;91.20
16825;DHT22;8529;48.108;-1.706;2023-06-26T10:22:01;22.80;92.20
16825;DHT22;8529;48.108;-1.706;2023-06-26T10:24:32;22.80;91.20
16825;DHT22;8529;48.108;-1.706;2023-06-26T10:27:03;22.70;91.70
16825;DHT22;8529;48.108;-1.706;2023-06-26T10:29:31;22.70;91.30
16825;DHT22;8529;48.108;-1.706;2023-06-26T10:32:00;22.60;90.60
16825;DHT22;8529;48.108;-1.706;2023-06-26T10:34:28;22.60;92.50
16825;DHT22;8529;48.108;-1.706;2023-06-26T10:37:05;22.60;93.30
16825;DHT22;8529;48.108;-1.706;2023-06-26T10:39:46;22.70;93.20
16825;DHT22;8529;48.108;-1.706;2023-06-26T10:42:15;22.80;93.00
16825;DHT22;8529;48.108;-1.706;2023-06-26T10:44:42;22.90;92.90
16825;DHT22;8529;48.108;-1.706;2023-06-26T10:47:10;23.10;91.80
16825;DHT22;8529;48.108;-1.706;2023-06-26T10:49:37;23.20;91.80
16825;DHT22;8529;48.108;-1.706;2023-06-26T10:52:07;23.40;91.00
16825;DHT22;8529;48.108;-1.706;2023-06-26T10:54:35;23.50;91.10
16825;DHT22;8529;48.108;-1.706;2023-06-26T10:57:04;23.60;91.50
16825;DHT22;8529;48.108;-1.706;2023-06-26T10:59:34;23.50;91.20
16825;DHT22;8529;48.108;-1.706;2023-06-26T11:02:02;23.50;90.10
16825;DHT22;8529;48.108;-1.706;2023-06-26T11:04:39;23.50;90.40
16825;DHT22;8529;48.108;-1.706;2023-06-26T11:07:19;23.40;91.50
16825;DHT22;8529;48.108;-1.706;2023-06-26T11:09:54;23.20;91.20
16825;DHT22;8529;48.108;-1.706;2023-06-26T11:12:35;23.20;90.10
16825;DHT22;8529;48.108;-1.706;2023-06-26T11:15:02;23.20;90.10
16825;DHT22;8529;48.108;-1.706;2023-06-26T11:17:29;23.30;90.20
16825;DHT22;8529;48.108;-1.706;2023-06-26T11:19:56;23.50;89.50
16825;DHT22;8529;48.108;-1.706;2023-06-26T11:22:25;23.50;89.60
16825;DHT22;8529;48.108;-1.706;2023-06-26T11:24:53;23.60;89.30
16825;DHT22;8529;48.108;-1.706;2023-06-26T11:27:20;23.70;89.80
16825;DHT22;8529;48.108;-1.706;2023-06-26T11:29:49;23.80;89.70
16825;DHT22;8529;48.108;-1.706;2023-06-26T11:32:16;23.90;90.00
16825;DHT22;8529;48.108;-1.706;2023-06-26T11:34:43;23.90;90.10
16825;DHT22;8529;48.108;-1.706;2023-06-26T11:37:10;23.90;90.00
16825;DHT22;8529;48.108;-1.706;2023-06-26T11:39:39;24.00;89.70
16825;DHT22;8529;48.108;-1.706;2023-06-26T11:42:06;24.10;89.50
16825;DHT22;8529;48.108;-1.706;2023-06-26T11:44:39;24.10;88.40
16825;DHT22;8529;48.108;-1.706;2023-06-26T11:47:07;24.20;87.20
16825;DHT22;8529;48.108;-1.706;2023-06-26T11:49:34;24.20;88.70
16825;DHT22;8529;48.108;-1.706;2023-06-26T11:52:03;24.20;88.30
16825;DHT22;8529;48.108;-1.706;2023-06-26T11:54:30;24.20;85.80
16825;DHT22;8529;48.108;-1.706;2023-06-26T11:56:59;24.20;86.10
16825;DHT22;8529;48.108;-1.706;2023-06-26T11:59:34;24.10;85.40
16825;DHT22;8529;48.108;-1.706;2023-06-26T12:02:05;23.90;85.60
16825;DHT22;8529;48.108;-1.706;2023-06-26T12:04:33;23.90;85.90
16825;DHT22;8529;48.108;-1.706;2023-06-26T12:07:01;23.90;86.80
16825;DHT22;8529;48.108;-1.706;2023-06-26T12:09:31;23.90;85.80
16825;DHT22;8529;48.108;-1.706;2023-06-26T12:12:01;23.90;84.80
16825;DHT22;8529;48.108;-1.706;2023-06-26T12:14:29;23.80;86.50
16825;DHT22;8529;48.108;-1.706;2023-06-26T12:17:04;23.80;86.70
16825;DHT22;8529;48.108;-1.706;2023-06-26T12:19:31;23.80;87.50
16825;DHT22;8529;48.108;-1.706;2023-06-26T12:21:58;23.90;86.70
16825;DHT22;8529;48.108;-1.706;2023-06-26T12:24:25;24.00;85.50
16825;DHT22;8529;48.108;-1.706;2023-06-26T12:26:54;24.10;85.90
16825;DHT22;8529;48.108;-1.706;2023-06-26T12:29:31;24.10;84.60
16825;DHT22;8529;48.108;-1.706;2023-06-26T12:31:58;24.20;85.10
16825;DHT22;8529;48.108;-1.706;2023-06-26T12:34:27;24.20;87.30
16825;DHT22;8529;48.108;-1.706;2023-06-26T12:37:00;24.20;89.10
16825;DHT22;8529;48.108;-1.706;2023-06-26T12:39:27;24.20;85.80
16825;DHT22;8529;48.108;-1.706;2023-06-26T12:41:58;24.30;83.60
16825;DHT22;8529;48.108;-1.706;2023-06-26T12:44:28;24.40;85.10
16825;DHT22;8529;48.108;-1.706;2023-06-26T12:46:57;24.40;85.10
16825;DHT22;8529;48.108;-1.706;2023-06-26T12:49:31;24.30;86.10
16825;DHT22;8529;48.108;-1.706;2023-06-26T12:51:59;24.30;86.60
16825;DHT22;8529;48.108;-1.706;2023-06-26T12:54:26;24.30;82.70
16825;DHT22;8529;48.108;-1.706;2023-06-26T12:56:54;24.40;81.70
16825;DHT22;8529;48.108;-1.706;2023-06-26T12:59:21;24.30;83.20
16825;DHT22;8529;48.108;-1.706;2023-06-26T13:01:49;24.30;82.90
16825;DHT22;8529;48.108;-1.706;2023-06-26T13:04:16;24.30;81.80
16825;DHT22;8529;48.108;-1.706;2023-06-26T13:06:43;24.20;85.00
16825;DHT22;8529;48.108;-1.706;2023-06-26T13:09:11;24.30;81.30
16825;DHT22;8529;48.108;-1.706;2023-06-26T13:11:38;24.30;82.00
16825;DHT22;8529;48.108;-1.706;2023-06-26T13:14:05;24.30;81.90
16825;DHT22;8529;48.108;-1.706;2023-06-26T13:16:32;24.40;81.90
16825;DHT22;8529;48.108;-1.706;2023-06-26T13:19:01;24.40;81.00
16825;DHT22;8529;48.108;-1.706;2023-06-26T13:21:28;24.40;80.20
16825;DHT22;8529;48.108;-1.706;2023-06-26T13:23:55;24.50;82.00
16825;DHT22;8529;48.108;-1.706;2023-06-26T13:26:23;24.50;79.50
16825;DHT22;8529;48.108;-1.706;2023-06-26T13:28:51;24.50;79.80
16825;DHT22;8529;48.108;-1.706;2023-06-26T13:31:18;24.50;80.00
16825;DHT22;8529;48.108;-1.706;2023-06-26T13:33:46;24.50;78.60
16825;DHT22;8529;48.108;-1.706;2023-06-26T13:36:15;24.40;79.30
16825;DHT22;8529;48.108;-1.706;2023-06-26T13:38:43;24.40;81.00
16825;DHT22;8529;48.108;-1.706;2023-06-26T13:41:10;24.40;79.20
16825;DHT22;8529;48.108;-1.706;2023-06-26T13:43:37;24.40;79.40
16825;DHT22;8529;48.108;-1.706;2023-06-26T13:46:04;24.40;79.40
16825;DHT22;8529;48.108;-1.706;2023-06-26T13:48:31;24.40;79.80
16825;DHT22;8529;48.108;-1.706;2023-06-26T13:50:58;24.40;79.60
16825;DHT22;8529;48.108;-1.706;2023-06-26T13:53:27;24.40;79.00
16825;DHT22;8529;48.108;-1.706;2023-06-26T13:55:54;24.30;79.60
16825;DHT22;8529;48.108;-1.706;2023-06-26T13:58:21;24.30;81.30
16825;DHT22;8529;48.108;-1.706;2023-06-26T14:00:48;24.30;84.00
16825;DHT22;8529;48.108;-1.706;2023-06-26T14:03:15;24.40;80.50
16825;DHT22;8529;48.108;-1.706;2023-06-26T14:05:43;24.40;80.00
16825;DHT22;8529;48.108;-1.706;2023-06-26T14:08:10;24.40;79.10
16825;DHT22;8529;48.108;-1.706;2023-06-26T14:10:38;24.30;80.20
16825;DHT22;8529;48.108;-1.706;2023-06-26T14:13:05;24.30;79.80
16825;DHT22;8529;48.108;-1.706;2023-06-26T14:15:33;24.30;81.20
16825;DHT22;8529;48.108;-1.706;2023-06-26T14:18:01;24.30;81.10
16825;DHT22;8529;48.108;-1.706;2023-06-26T14:20:28;24.40;81.40
16825;DHT22;8529;48.108;-1.706;2023-06-26T14:22:58;24.40;81.70
16825;DHT22;8529;48.108;-1.706;2023-06-26T14:25:25;24.40;81.30
16825;DHT22;8529;48.108;-1.706;2023-06-26T14:27:55;24.40;80.00
16825;DHT22;8529;48.108;-1.706;2023-06-26T14:30:22;24.40;79.80
16825;DHT22;8529;48.108;-1.706;2023-06-26T14:32:49;24.40;80.00
16825;DHT22;8529;48.108;-1.706;2023-06-26T14:35:16;24.40;81.00
16825;DHT22;8529;48.108;-1.706;2023-06-26T14:37:43;24.40;81.60
16825;DHT22;8529;48.108;-1.706;2023-06-26T14:40:11;24.30;81.10
16825;DHT22;8529;48.108;-1.706;2023-06-26T14:42:38;24.30;80.60
16825;DHT22;8529;48.108;-1.706;2023-06-26T14:45:07;24.30;81.10
16825;DHT22;8529;48.108;-1.706;2023-06-26T14:47:34;24.20;80.90
16825;DHT22;8529;48.108;-1.706;2023-06-26T14:50:01;24.20;81.30
16825;DHT22;8529;48.108;-1.706;2023-06-26T14:52:28;24.20;80.90
16825;DHT22;8529;48.108;-1.706;2023-06-26T14:54:55;24.20;80.90
16825;DHT22;8529;48.108;-1.706;2023-06-26T14:57:22;24.10;80.70
16825;DHT22;8529;48.108;-1.706;2023-06-26T14:59:49;24.10;80.80
16825;DHT22;8529;48.108;-1.706;2023-06-26T15:02:17;24.10;80.90
16825;DHT22;8529;48.108;-1.706;2023-06-26T15:04:44;24.10;81.00
16825;DHT22;8529;48.108;-1.706;2023-06-26T15:07:11;24.10;81.90
16825;DHT22;8529;48.108;-1.706;2023-06-26T15:09:38;24.10;81.30
16825;DHT22;8529;48.108;-1.706;2023-06-26T15:12:06;24.20;83.60
16825;DHT22;8529;48.108;-1.706;2023-06-26T15:14:33;24.20;84.20
16825;DHT22;8529;48.108;-1.706;2023-06-26T15:17:00;24.20;83.30
16825;DHT22;8529;48.108;-1.706;2023-06-26T15:19:28;24.30;81.90
16825;DHT22;8529;48.108;-1.706;2023-06-26T15:21:55;24.30;83.70
16825;DHT22;8529;48.108;-1.706;2023-06-26T15:24:22;24.30;80.80
16825;DHT22;8529;48.108;-1.706;2023-06-26T15:26:48;24.30;80.90
16825;DHT22;8529;48.108;-1.706;2023-06-26T15:29:15;24.30;81.30
16825;DHT22;8529;48.108;-1.706;2023-06-26T15:31:43;24.30;82.80
16825;DHT22;8529;48.108;-1.706;2023-06-26T15:34:10;24.30;82.30